Time;durP1;ratioP1;P1;durP2;ratioP2;P2;SDS_P1;SDS_P2;PMS_P1;PMS_P2;Temp;Humidity;BMP_temperature;BMP_pressure;BME280_temperature;BME280_humidity;BME280_pressure;Samples;Min_cycle;Max_cycle;Signal;HPM_P1;HPM_P2
2023/10/07 00:01:22;;;;;;;;;16.75;16.50;;;;;16.40;63.09;102137.38;6371956;22;45206;-80
2023/10/07 00:03:49;;;;;;;;;22.25;18.25;;;;;16.37;63.50;102140.22;6344393;22;45335;-80
2023/10/07 00:06:16;;;;;;;;;18.25;14.75;;;;;16.43;63.34;102144.50;6372056;22;45211;-80
2023/10/07 00:08:42;;;;;;;;;15.00;14.00;;;;;16.30;63.53;102133.25;6372761;22;46075;-80
2023/10/07 00:11:11;;;;;;;;;16.50;15.00;;;;;16.33;63.70;102153.84;6372255;22;45157;-80
2023/10/07 00:13:41;;;;;;;;;16.50;14.50;;;;;16.27;63.87;102144.13;6372536;22;45296;-80
2023/10/07 00:16:06;;;;;;;;;16.25;15.75;;;;;16.29;63.97;102144.97;6371316;22;45195;-80
2023/10/07 00:18:34;;;;;;;;;13.75;12.50;;;;;16.37;63.92;102159.06;6343662;22;46103;-80
2023/10/07 00:21:02;;;;;;;;;15.75;12.50;;;;;16.36;64.06;102162.69;6371830;22;45322;-80
2023/10/07 00:23:28;;;;;;;;;18.25;14.00;;;;;16.23;64.08;102140.66;6372652;22;45327;-80
2023/10/07 00:26:00;;;;;;;;;15.75;15.75;;;;;16.24;63.97;102145.13;6344195;22;45597;-80
2023/10/07 00:28:32;;;;;;;;;16.00;15.75;;;;;16.25;64.34;102151.38;6344181;22;47109;-80
2023/10/07 00:31:22;;;;;;;;;15.25;13.25;;;;;16.42;64.42;102178.66;6369827;22;45363;-80
2023/10/07 00:34:02;;;;;;;;;14.25;14.25;;;;;16.19;64.13;102136.31;6343780;22;45344;-80
2023/10/07 00:39:20;;;;;;;;;16.25;15.00;;;;;16.25;64.38;102146.88;6372026;22;46074;-80
2023/10/07 00:41:47;;;;;;;;;15.00;15.00;;;;;16.32;64.48;102154.75;6372271;22;45163;-80
2023/10/07 00:44:22;;;;;;;;;12.00;12.00;;;;;16.39;64.50;102161.69;6371836;22;45411;-80
2023/10/07 00:49:41;;;;;;;;;14.50;13.00;;;;;16.30;64.60;102153.00;6371677;22;45229;-80
2023/10/07 00:52:12;;;;;;;;;16.25;14.75;;;;;16.34;64.62;102161.88;6372019;22;45197;-80
2023/10/07 00:54:50;;;;;;;;;17.00;17.00;;;;;16.33;64.78;102160.09;6372589;22;45335;-80
2023/10/07 00:57:28;;;;;;;;;11.00;11.00;;;;;16.06;64.95;102124.19;6372227;22;45126;-80
2023/10/07 00:59:57;;;;;;;;;13.25;12.50;;;;;16.22;64.73;102151.50;6371547;22;45502;-80
2023/10/07 01:02:30;;;;;;;;;16.25;16.00;;;;;16.10;65.14;102129.44;6370986;22;45317;-80
2023/10/07 01:05:00;;;;;;;;;13.00;13.00;;;;;16.10;65.04;102137.53;6372590;22;45418;-80
2023/10/07 01:07:31;;;;;;;;;10.50;10.50;;;;;16.02;65.04;102119.84;6344507;22;45357;-80
2023/10/07 01:10:15;;;;;;;;;16.50;13.00;;;;;16.10;65.10;102132.13;6344478;22;47444;-80
2023/10/07 01:12:42;;;;;;;;;14.00;12.25;;;;;16.05;65.17;102128.69;6372902;22;45243;-80
2023/10/07 01:15:24;;;;;;;;;15.00;13.75;;;;;16.06;65.12;102118.81;6373304;22;45296;-80
2023/10/07 01:18:03;;;;;;;;;14.00;13.00;;;;;16.08;65.00;102119.63;6371861;22;45329;-80
2023/10/07 01:20:35;;;;;;;;;14.25;11.75;;;;;16.26;65.12;102143.25;6344680;22;47563;-80
2023/10/07 01:23:04;;;;;;;;;11.75;11.50;;;;;16.03;65.30;102100.06;6373112;22;45288;-80
2023/10/07 01:25:43;;;;;;;;;12.00;11.00;;;;;16.13;65.20;102116.78;6373348;22;45277;-80
2023/10/07 01:28:14;;;;;;;;;13.75;12.50;;;;;16.04;65.17;102110.78;6344910;22;45795;-80
2023/10/07 01:30:47;;;;;;;;;14.00;13.50;;;;;16.16;65.68;102119.38;6371686;22;45273;-80
2023/10/07 01:33:25;;;;;;;;;14.00;13.00;;;;;16.02;65.27;102096.50;6372769;22;45224;-80
2023/10/07 01:36:10;;;;;;;;;13.00;12.00;;;;;16.22;65.35;102125.44;6345018;22;45358;-80
2023/10/07 01:38:44;;;;;;;;;12.00;11.50;;;;;16.22;65.46;102124.53;6372797;22;45387;-86
2023/10/07 01:41:14;;;;;;;;;11.75;10.00;;;;;16.07;65.41;102094.53;6373180;22;45575;-87
2023/10/07 01:43:41;;;;;;;;;8.25;8.00;;;;;16.20;65.40;102116.50;6373273;22;45190;-87
2023/10/07 01:46:19;;;;;;;;;14.00;11.50;;;;;16.18;65.50;102104.91;6344196;22;45256;-87
2023/10/07 01:48:55;;;;;;;;;11.25;10.50;;;;;16.13;65.27;102092.56;6342724;22;45188;-87
2023/10/07 01:51:20;;;;;;;;;12.50;11.25;;;;;16.21;65.27;102107.50;6372607;22;45383;-87
2023/10/07 01:53:46;;;;;;;;;10.75;10.75;;;;;16.18;65.16;102113.00;6372959;22;45156;-87
2023/10/07 01:56:14;;;;;;;;;12.50;12.50;;;;;16.08;65.32;102085.50;6344863;22;45261;-87
2023/10/07 01:58:40;;;;;;;;;11.75;11.75;;;;;16.06;65.12;102086.50;6372613;22;45256;-87
2023/10/07 02:01:05;;;;;;;;;12.75;12.00;;;;;16.05;65.50;102085.59;6371887;22;45315;-87
2023/10/07 02:03:32;;;;;;;;;12.00;12.00;;;;;16.16;65.51;102108.63;6373283;22;45305;-88
2023/10/07 02:05:58;;;;;;;;;11.50;11.50;;;;;16.15;65.11;102107.72;6373060;22;45170;-87
2023/10/07 02:08:25;;;;;;;;;11.50;10.25;;;;;16.17;65.28;102115.75;6345077;22;45348;-87
2023/10/07 02:10:57;;;;;;;;;9.75;9.75;;;;;16.16;65.23;102125.66;6344550;22;47006;-88
2023/10/07 02:13:23;;;;;;;;;12.25;10.75;;;;;16.07;65.30;102117.88;6344364;22;45349;-87
2023/10/07 02:15:51;;;;;;;;;12.25;11.25;;;;;16.02;65.19;102109.97;6372521;22;45312;-87
2023/10/07 02:18:17;;;;;;;;;11.50;10.25;;;;;16.02;65.33;102115.34;6372922;22;45390;-87
2023/10/07 02:23:51;;;;;;;;;11.00;10.75;;;;;15.91;65.16;102107.59;6372933;22;45635;-86
2023/10/07 02:28:43;;;;;;;;;12.50;10.25;;;;;15.97;65.44;102140.66;6372509;22;45304;-80
2023/10/07 02:31:15;;;;;;;;;11.25;10.75;;;;;16.00;65.60;102143.25;6372354;22;46038;-87
2023/10/07 02:33:57;;;;;;;;;12.25;12.25;;;;;15.99;65.68;102149.56;6372667;22;45484;-87
2023/10/07 02:36:31;;;;;;;;;11.75;10.00;;;;;15.94;65.51;102138.94;6348912;22;45197;-87
2023/10/07 02:39:26;;;;;;;;;11.25;11.25;;;;;15.91;65.81;102134.53;6344788;22;45789;-87
2023/10/07 02:41:53;;;;;;;;;10.75;9.50;;;;;15.93;65.75;102135.34;6372529;22;45231;-87
2023/10/07 02:44:28;;;;;;;;;11.75;10.00;;;;;15.96;65.79;102142.47;6372668;22;45225;-87
2023/10/07 02:46:54;;;;;;;;;9.00;7.75;;;;;15.83;65.53;102119.56;6372996;22;45298;-87
2023/10/07 02:49:20;;;;;;;;;12.75;11.50;;;;;15.92;65.39;102143.47;6344452;22;45315;-80
2023/10/07 02:51:47;;;;;;;;;9.50;9.50;;;;;15.93;65.35;102140.75;6373055;22;45961;-80
2023/10/07 02:54:18;;;;;;;;;10.00;9.00;;;;;15.84;65.26;102124.91;6373025;22;45566;-80
2023/10/07 02:57:08;;;;;;;;;11.75;10.00;;;;;15.81;65.36;102121.44;6372660;22;45241;-80
2023/10/07 02:59:36;;;;;;;;;12.50;11.50;;;;;15.86;65.25;102122.16;6344259;22;45797;-80
2023/10/07 03:02:14;;;;;;;;;10.75;10.75;;;;;15.78;65.72;102108.94;6344224;22;47673;-80
2023/10/07 03:04:43;;;;;;;;;10.25;9.00;;;;;15.84;65.50;102122.22;6344511;22;45715;-80
2023/10/07 03:07:16;;;;;;;;;15.00;10.75;;;;;15.72;65.25;102107.31;6372676;22;45240;-80
2023/10/07 03:10:30;;;;;;;;;10.00;9.75;;;;;15.81;65.38;102114.22;6344096;22;45372;-80
2023/10/07 03:12:31;;;;;;;;;7.50;7.50;;;;;15.89;65.72;102136.41;6354961;22;45897;-80
2023/10/07 03:15:05;;;;;;;;;9.75;9.75;;;;;15.84;65.71;102124.91;6344444;22;45502;-80
2023/10/07 03:17:38;;;;;;;;;9.00;8.00;;;;;15.77;65.69;102128.72;6372571;22;45228;-80
2023/10/07 03:26:05;;;;;;;;;10.00;10.00;;;;;15.71;66.09;102127.06;6372127;22;45553;-80
2023/10/07 03:28:23;;;;;;;;;10.50;10.00;;;;;15.76;66.20;102139.56;6371961;22;45209;-80
2023/10/07 03:30:52;;;;;;;;;1.00;1.00;;;;;15.69;66.28;102131.63;6343389;22;45744;-80
2023/10/07 03:33:42;;;;;;;;;9.25;9.25;;;;;15.79;65.88;102156.47;6344254;22;46499;-80
2023/10/07 03:36:16;;;;;;;;;12.50;9.00;;;;;15.70;65.67;102136.09;6372433;22;45154;-87
2023/10/07 03:38:42;;;;;;;;;11.50;10.75;;;;;15.78;66.08;102153.84;6372921;22;45346;-80
2023/10/07 03:41:09;;;;;;;;;7.75;7.75;;;;;15.56;66.08;102119.47;6372271;22;45182;-80
2023/10/07 03:43:35;;;;;;;;;8.00;7.75;;;;;15.77;66.35;102149.38;6344182;22;47524;-80
2023/10/07 03:46:01;;;;;;;;;8.75;8.75;;;;;15.60;66.02;102125.66;6372307;22;45445;-87
2023/10/07 03:48:32;;;;;;;;;9.50;9.00;;;;;15.75;66.15;102152.06;6344172;22;45265;-80
2023/10/07 03:50:59;;;;;;;;;8.50;8.50;;;;;15.57;66.32;102121.25;6343804;22;45499;-80
2023/10/07 03:53:31;;;;;;;;;9.50;9.50;;;;;15.70;66.30;102149.56;6344011;22;48293;-80
2023/10/07 03:55:58;;;;;;;;;11.75;11.75;;;;;15.57;65.97;102124.81;6344117;22;45146;-87
2023/10/07 03:58:24;;;;;;;;;9.00;8.00;;;;;15.71;66.48;102148.59;6372687;22;45519;-87
2023/10/07 04:00:50;;;;;;;;;13.25;12.00;;;;;15.60;66.28;102118.44;6344067;22;45589;-87
2023/10/07 04:03:15;;;;;;;;;10.50;10.50;;;;;15.66;66.29;102129.03;6372959;22;45502;-87
2023/10/07 04:05:45;;;;;;;;;8.50;8.25;;;;;15.70;66.29;102148.66;6372227;22;45267;-80
2023/10/07 04:08:11;;;;;;;;;10.25;10.25;;;;;15.63;66.18;102136.31;6372480;22;45162;-80
2023/10/07 04:10:36;;;;;;;;;8.00;7.75;;;;;15.53;66.09;102128.53;6343627;22;45218;-80
2023/10/07 04:13:07;;;;;;;;;8.25;7.25;;;;;15.59;66.13;102134.66;6343938;22;47178;-80
2023/10/07 04:15:36;;;;;;;;;16.00;13.00;;;;;15.52;66.46;102128.59;6343424;22;45540;-80
2023/10/07 04:18:02;;;;;;;;;10.75;8.25;;;;;15.49;66.40;102129.56;6344157;22;45418;-80
2023/10/07 04:23:28;;;;;;;;;10.50;8.75;;;;;15.65;66.26;102150.59;6274415;22;46221;-80
2023/10/07 04:26:10;;;;;;;;;10.50;9.50;;;;;15.60;66.36;102141.78;6350857;22;45607;-88
2023/10/07 04:28:36;;;;;;;;;11.50;10.75;;;;;15.41;66.44;102117.28;6344225;22;45292;-87
2023/10/07 04:31:09;;;;;;;;;10.25;10.00;;;;;15.57;66.21;102143.66;6371806;22;45287;-87
2023/10/07 04:33:40;;;;;;;;;11.25;11.00;;;;;15.48;66.56;102135.00;6372267;22;45195;-87
2023/10/07 04:36:14;;;;;;;;;10.00;9.00;;;;;15.50;66.32;102134.03;6372772;22;45205;-87
2023/10/07 04:38:52;;;;;;;;;7.00;6.00;;;;;15.59;66.51;102148.13;6344146;22;45158;-87
2023/10/07 04:44:20;;;;;;;;;13.75;12.00;;;;;15.45;66.70;102122.53;6371569;22;45165;-87
2023/10/07 04:46:55;;;;;;;;;14.00;10.50;;;;;15.49;66.44;102128.69;6343228;22;45626;-87
2023/10/07 04:49:35;;;;;;;;;10.25;10.25;;;;;15.43;66.67;102124.34;6372099;22;45181;-87
2023/10/07 04:52:04;;;;;;;;;10.50;10.50;;;;;15.45;66.70;102127.00;6372042;22;45316;-87
2023/10/07 04:54:35;;;;;;;;;8.25;8.25;;;;;15.36;66.92;102112.03;6344056;22;47048;-87
2023/10/07 04:57:01;;;;;;;;;13.00;12.00;;;;;15.36;66.70;102118.28;6343750;22;45502;-87
2023/10/07 04:59:28;;;;;;;;;10.00;8.00;;;;;15.43;66.78;102137.81;6344500;22;45444;-86
2023/10/07 05:01:56;;;;;;;;;11.25;10.00;;;;;15.45;66.89;102149.44;6371386;22;45407;-87
2023/10/07 05:04:24;;;;;;;;;11.50;10.75;;;;;15.28;66.79;102122.13;6372017;22;45241;-87
2023/10/07 05:06:51;;;;;;;;;11.50;9.75;;;;;15.34;66.76;102135.41;6343871;22;45506;-87
2023/10/07 05:09:21;;;;;;;;;10.75;10.00;;;;;15.46;67.02;102150.31;6372129;22;45458;-87
2023/10/07 05:11:47;;;;;;;;;10.75;10.75;;;;;15.46;66.74;102145.78;6372486;22;45367;-87
2023/10/07 05:14:22;;;;;;;;;14.00;11.75;;;;;15.37;67.13;102125.44;6371055;22;45206;-87
2023/10/07 05:16:49;;;;;;;;;12.00;10.00;;;;;15.47;66.98;102146.66;6371351;22;45367;-87
2023/10/07 05:19:22;;;;;;;;;9.25;9.25;;;;;15.34;67.08;102127.34;6370844;22;45326;-87
2023/10/07 05:24:38;;;;;;;;;11.75;9.25;;;;;15.35;66.99;102137.16;6371867;22;45346;-87
2023/10/07 05:27:04;;;;;;;;;14.25;11.50;;;;;15.43;66.78;102151.25;6370514;22;45777;-87
2023/10/07 05:29:29;;;;;;;;;8.00;7.25;;;;;15.32;67.24;102135.47;6369719;22;45271;-87
2023/10/07 05:31:58;;;;;;;;;11.75;10.25;;;;;15.27;67.43;102128.44;6371437;22;45216;-87
2023/10/07 05:34:28;;;;;;;;;12.75;11.25;;;;;15.29;67.64;102138.25;6369568;22;47037;-87
2023/10/07 05:37:03;;;;;;;;;11.00;10.75;;;;;15.40;67.48;102154.03;6371875;22;45177;-87
2023/10/07 05:39:28;;;;;;;;;11.75;11.00;;;;;15.35;67.71;102150.59;6371129;22;45474;-87
2023/10/07 05:41:56;;;;;;;;;12.00;10.75;;;;;15.25;67.54;102133.88;6370293;22;45170;-86
2023/10/07 05:44:21;;;;;;;;;12.50;10.50;;;;;15.37;67.44;102155.03;6342953;22;47411;-87
2023/10/07 05:46:47;;;;;;;;;10.50;10.50;;;;;15.21;67.76;102134.88;6343307;22;45436;-87
2023/10/07 05:49:14;;;;;;;;;13.50;10.50;;;;;15.34;67.43;102156.94;6371486;22;45189;-87
2023/10/07 05:51:39;;;;;;;;;10.75;9.50;;;;;15.19;67.48;102137.63;6343004;22;45430;-87
2023/10/07 05:54:05;;;;;;;;;9.00;8.50;;;;;15.31;67.68;102155.19;6372719;22;45533;-87
2023/10/07 05:56:30;;;;;;;;;13.00;12.00;;;;;15.15;67.57;102127.91;6344784;22;45240;-87
2023/10/07 05:58:57;;;;;;;;;11.25;8.25;;;;;15.22;67.79;102139.34;6344309;22;45274;-87
2023/10/07 06:01:24;;;;;;;;;17.50;13.75;;;;;15.14;67.79;102131.50;6343376;22;45472;-87
2023/10/07 06:03:51;;;;;;;;;13.25;11.00;;;;;15.16;67.72;102137.72;6372344;22;45379;-87
2023/10/07 06:06:18;;;;;;;;;11.00;11.00;;;;;15.19;67.60;102145.69;6343654;22;45917;-87
2023/10/07 06:08:44;;;;;;;;;11.00;11.00;;;;;15.19;67.68;102150.19;6372717;22;45285;-87
2023/10/07 06:11:10;;;;;;;;;11.25;10.50;;;;;15.25;67.78;102155.41;6344342;22;45784;-80
2023/10/07 06:13:40;;;;;;;;;13.00;10.25;;;;;15.28;67.72;102154.41;6372772;22;45266;-80
2023/10/07 06:16:07;;;;;;;;;16.00;13.00;;;;;15.29;67.92;102149.00;6371997;22;45525;-80
2023/10/07 06:18:33;;;;;;;;;13.50;13.50;;;;;15.31;67.81;102154.34;6373369;22;45229;-87
2023/10/07 06:21:17;;;;;;;;;16.00;12.00;;;;;15.14;67.71;102130.63;6344678;22;46134;-87
2023/10/07 06:23:43;;;;;;;;;12.75;12.25;;;;;15.31;67.84;102157.03;6344085;22;47552;-87
2023/10/07 06:26:13;;;;;;;;;12.25;11.00;;;;;15.16;68.02;102143.09;6372734;22;45398;-88
2023/10/07 06:28:50;;;;;;;;;10.25;8.00;;;;;15.10;68.14;102142.38;6372247;22;45347;-90
2023/10/07 06:31:28;;;;;;;;;11.25;11.00;;;;;15.24;68.21;102168.91;6371131;22;45407;-84
2023/10/07 06:34:00;;;;;;;;;11.75;11.50;;;;;15.14;68.05;102147.63;6370771;22;46072;-84
2023/10/07 06:36:27;;;;;;;;;13.00;12.00;;;;;15.23;68.30;102164.44;6344488;22;45742;-84
2023/10/07 06:38:53;;;;;;;;;11.75;11.75;;;;;15.18;68.36;102151.13;6372989;22;45166;-84
2023/10/07 06:41:19;;;;;;;;;13.75;12.25;;;;;15.29;68.12;102170.53;6372605;22;45217;-84
2023/10/07 06:43:50;;;;;;;;;11.25;10.00;;;;;15.30;68.40;102166.91;6370626;22;48208;-84
2023/10/07 06:46:20;;;;;;;;;10.00;10.00;;;;;15.18;68.27;102154.72;6372329;22;45182;-84
2023/10/07 06:48:48;;;;;;;;;12.00;12.00;;;;;15.17;68.37;102158.31;6372858;22;45328;-84
2023/10/07 06:51:14;;;;;;;;;16.00;13.00;;;;;15.26;68.25;102180.50;6372085;22;45228;-84
2023/10/07 06:53:42;;;;;;;;;22.25;19.75;;;;;15.15;68.46;102165.56;6343356;22;46998;-84
2023/10/07 06:56:12;;;;;;;;;27.50;23.25;;;;;15.28;68.53;102181.31;6372643;22;45512;-84
2023/10/07 06:58:38;;;;;;;;;23.25;22.00;;;;;15.24;68.48;102168.91;6344601;22;45297;-84
2023/10/07 07:01:16;;;;;;;;;27.75;24.25;;;;;15.22;68.68;102162.66;6372124;22;45482;-84
2023/10/07 07:03:42;;;;;;;;;27.25;25.00;;;;;15.18;69.04;102157.41;6372500;22;45251;-84
2023/10/07 07:06:16;;;;;;;;;27.00;23.25;;;;;15.23;68.91;102156.38;6344014;22;45181;-80
2023/10/07 07:08:42;;;;;;;;;31.75;29.75;;;;;15.30;68.99;102171.38;6344550;22;45271;-80
2023/10/07 07:11:10;;;;;;;;;28.50;25.00;;;;;15.29;68.96;102169.66;6344047;22;45265;-80
2023/10/07 07:13:36;;;;;;;;;24.25;19.00;;;;;15.27;69.23;102161.63;6372384;22;45220;-80
2023/10/07 07:16:06;;;;;;;;;26.00;21.00;;;;;15.28;69.20;102167.88;6370340;22;45272;-80
2023/10/07 07:18:32;;;;;;;;;21.25;21.00;;;;;15.30;69.00;102171.38;6372754;22;45138;-79
2023/10/07 07:21:13;;;;;;;;;21.75;19.00;;;;;15.23;69.34;102159.06;6343240;22;45344;-80
2023/10/07 07:23:43;;;;;;;;;16.25;16.00;;;;;15.37;69.66;102189.13;6372795;22;45284;-80
2023/10/07 07:26:12;;;;;;;;;16.25;12.00;;;;;15.35;69.66;102169.44;6370927;22;45512;-83
2023/10/07 07:28:42;;;;;;;;;21.25;17.00;;;;;15.38;69.85;102180.13;6372531;22;45258;-83
2023/10/07 07:31:11;;;;;;;;;20.75;15.50;;;;;15.39;69.64;102176.50;6371811;22;45193;-83
2023/10/07 07:33:37;;;;;;;;;13.50;12.25;;;;;15.34;69.81;102175.78;6371796;22;46457;-83
2023/10/07 07:36:18;;;;;;;;;18.25;15.50;;;;;15.44;69.83;102196.09;6372778;22;45253;-84
2023/10/07 07:38:44;;;;;;;;;19.75;17.25;;;;;15.45;70.05;102197.88;6342747;22;45419;-79
2023/10/07 07:41:26;;;;;;;;;17.00;15.75;;;;;15.37;70.15;102178.38;6371406;22;45217;-79
2023/10/07 07:43:58;;;;;;;;;19.00;19.00;;;;;15.50;70.55;102189.63;6371164;22;47007;-80
2023/10/07 07:46:26;;;;;;;;;18.25;16.25;;;;;15.51;70.36;102197.66;6371704;22;45293;-80
2023/10/07 07:48:53;;;;;;;;;17.50;15.50;;;;;15.42;70.63;102187.19;6344319;22;45195;-80
2023/10/07 07:51:25;;;;;;;;;15.50;13.50;;;;;15.60;70.64;102217.16;6371842;22;45310;-80
2023/10/07 07:53:52;;;;;;;;;15.25;13.00;;;;;15.59;70.83;102210.03;6372165;22;45228;-81
2023/10/07 07:56:22;;;;;;;;;17.25;17.25;;;;;15.63;70.67;102217.94;6372118;22;45587;-80
2023/10/07 07:58:47;;;;;;;;;13.50;13.50;;;;;15.69;70.95;102223.16;6372251;22;45187;-80
2023/10/07 08:01:18;;;;;;;;;15.50;13.75;;;;;15.62;71.00;102204.53;6371057;22;49837;-80
2023/10/07 08:03:43;;;;;;;;;15.50;15.50;;;;;15.76;71.14;102223.88;6371311;22;46289;-80
2023/10/07 08:06:12;;;;;;;;;15.75;15.50;;;;;15.76;71.48;102217.63;6372185;22;45243;-80
2023/10/07 08:08:37;;;;;;;;;16.75;14.25;;;;;15.80;71.77;102216.59;6343278;22;45309;-80
2023/10/07 08:11:05;;;;;;;;;18.75;17.00;;;;;15.86;71.80;102229.88;6343649;22;45513;-80
2023/10/07 08:13:31;;;;;;;;;14.50;14.25;;;;;15.84;71.51;102232.59;6371701;22;45400;-80
2023/10/07 08:16:01;;;;;;;;;17.25;16.25;;;;;15.90;71.66;102245.91;6371248;22;45212;-80
2023/10/07 08:18:29;;;;;;;;;18.25;16.50;;;;;15.94;71.91;102243.97;6371895;22;45496;-80
2023/10/07 08:21:07;;;;;;;;;17.25;15.25;;;;;16.00;71.85;102248.28;6371784;22;45217;-79
2023/10/07 08:23:40;;;;;;;;;17.00;15.75;;;;;15.93;72.31;102243.06;6371608;22;45403;-80
2023/10/07 08:26:13;;;;;;;;;18.25;16.25;;;;;16.02;71.81;102252.72;6372270;22;45142;-80
2023/10/07 08:29:30;;;;;;;;;16.25;16.25;;;;;16.11;72.30;102252.41;6372062;22;45212;-80
2023/10/07 08:31:39;;;;;;;;;12.00;9.50;;;;;16.16;72.13;102246.88;6362095;22;45574;-80
2023/10/07 08:36:39;;;;;;;;;18.50;16.75;;;;;16.16;71.91;102236.09;6371366;22;45508;-80
2023/10/07 08:39:06;;;;;;;;;17.75;17.00;;;;;16.16;71.95;102232.53;6343840;22;45285;-80
2023/10/07 08:41:31;;;;;;;;;16.50;16.00;;;;;16.35;72.10;102248.97;6371746;22;45274;-80
2023/10/07 08:44:18;;;;;;;;;11.75;11.75;;;;;16.44;72.08;102254.94;6370836;22;47758;-80
2023/10/07 08:46:54;;;;;;;;;12.50;12.50;;;;;16.41;72.33;102238.00;6371654;22;45520;-80
2023/10/07 08:49:26;;;;;;;;;16.00;15.25;;;;;16.51;71.88;102239.44;6370193;22;45127;-80
2023/10/07 08:51:54;;;;;;;;;16.75;16.50;;;;;16.65;72.34;102260.53;6369888;22;45258;-83
2023/10/07 08:54:26;;;;;;;;;15.50;13.75;;;;;16.71;71.62;102256.78;6369584;22;45293;-83
2023/10/07 08:56:57;;;;;;;;;13.25;13.00;;;;;16.72;72.14;102239.66;6343503;22;45368;-84
2023/10/07 08:59:32;;;;;;;;;15.25;10.75;;;;;16.70;71.96;102231.59;6370827;22;45225;-84
2023/10/07 09:02:12;;;;;;;;;13.00;11.75;;;;;16.79;71.43;102242.09;6371680;22;45247;-83
2023/10/07 09:04:40;;;;;;;;;14.50;12.25;;;;;16.90;72.35;102252.53;6343455;22;48359;-84
2023/10/07 09:07:08;;;;;;;;;13.75;12.00;;;;;17.06;72.01;102273.56;6371963;22;45220;-83
2023/10/07 09:09:38;;;;;;;;;15.75;13.00;;;;;17.13;72.10;102273.31;6371943;22;45397;-84
2023/10/07 09:12:50;;;;;;;;;10.00;10.00;;;;;17.12;72.45;102257.16;6342966;22;45375;-83
2023/10/07 09:15:12;;;;;;;;;11.75;11.75;;;;;17.29;72.25;102270.94;6353875;22;45956;-84
2023/10/07 09:17:41;;;;;;;;;13.25;12.00;;;;;17.22;71.88;102234.31;6371777;22;45225;-83
2023/10/07 09:20:13;;;;;;;;;12.75;11.75;;;;;17.41;72.52;102251.59;6343134;22;45271;-83
2023/10/07 09:22:45;;;;;;;;;11.75;10.25;;;;;17.37;71.79;102239.16;6343027;22;45309;-84
2023/10/07 09:25:52;;;;;;;;;11.75;9.50;;;;;17.53;71.94;102244.84;6342909;22;47814;-80
2023/10/07 09:28:01;;;;;;;;;9.00;8.00;;;;;17.76;70.96;102270.97;6356990;22;45200;-80
2023/10/07 09:30:35;;;;;;;;;10.00;10.00;;;;;17.85;71.91;102268.88;6372023;22;45209;-80
2023/10/07 09:33:06;;;;;;;;;9.50;9.00;;;;;17.88;71.36;102260.69;6344736;22;45579;-80
2023/10/07 09:35:31;;;;;;;;;13.00;9.00;;;;;17.95;70.24;102256.78;6344305;22;47159;-80
2023/10/07 09:37:59;;;;;;;;;10.50;8.00;;;;;17.99;70.11;102258.41;6373296;22;45276;-80
2023/10/07 09:43:13;;;;;;;;;10.75;9.75;;;;;18.05;69.85;102246.50;6373035;22;45173;-80
2023/10/07 09:45:39;;;;;;;;;8.00;6.75;;;;;18.20;69.49;102263.94;6372475;22;45833;-80
2023/10/07 09:48:09;;;;;;;;;6.50;5.25;;;;;18.20;69.39;102247.72;6373311;22;45366;-80
2023/10/07 09:50:36;;;;;;;;;8.00;7.50;;;;;18.31;69.04;102262.56;6344759;22;45287;-79
2023/10/07 09:53:22;;;;;;;;;8.75;7.00;;;;;18.39;70.20;102272.16;6344956;22;45253;-80
2023/10/07 09:56:04;;;;;;;;;9.25;7.25;;;;;18.29;69.12;102250.03;6349419;22;46431;-80
2023/10/07 09:58:48;;;;;;;;;6.00;4.75;;;;;18.49;69.10;102274.44;6373258;22;45270;-80
2023/10/07 10:01:53;;;;;;;;;9.50;6.75;;;;;18.52;68.95;102266.19;6372909;22;45807;-80
2023/10/07 10:04:43;;;;;;;;;5.75;5.75;;;;;18.55;68.65;102259.78;6313098;22;45236;-80
2023/10/07 10:07:32;;;;;;;;;7.50;7.50;;;;;18.69;67.88;102281.72;6373395;22;45280;-80
2023/10/07 10:10:06;;;;;;;;;8.75;6.75;;;;;18.65;68.99;102260.28;6372797;22;45437;-80
2023/10/07 10:13:06;;;;;;;;;6.50;6.50;;;;;18.79;68.92;102263.25;6373408;22;45209;-80
2023/10/07 10:18:06;;;;;;;;;5.25;5.25;;;;;19.03;67.86;102282.13;6372726;22;45242;-84
2023/10/07 10:20:45;;;;;;;;;7.00;6.00;;;;;19.07;67.46;102275.63;6372539;22;45447;-84
2023/10/07 10:23:19;;;;;;;;;7.75;7.75;;;;;19.02;67.61;102251.47;6373199;22;45231;-84
2023/10/07 10:25:53;;;;;;;;;7.25;6.00;;;;;19.17;68.35;102270.69;6344473;22;45458;-84
2023/10/07 10:28:27;;;;;;;;;6.00;6.00;;;;;19.22;67.43;102277.66;6372649;22;45301;-84
2023/10/07 10:30:53;;;;;;;;;5.75;5.75;;;;;19.25;66.93;102263.97;6375199;22;45300;-84
2023/10/07 10:33:25;;;;;;;;;7.50;6.25;;;;;19.23;67.72;102246.06;6345413;22;45201;-84
2023/10/07 10:35:57;;;;;;;;;6.00;3.75;;;;;19.36;67.36;102251.78;6372427;22;45391;-84
2023/10/07 10:38:37;;;;;;;;;7.25;6.00;;;;;19.43;67.08;102247.88;6343608;22;47388;-84
2023/10/07 10:41:04;;;;;;;;;5.00;5.00;;;;;19.47;66.79;102244.06;6372586;22;45340;-80
2023/10/07 10:43:31;;;;;;;;;4.50;4.50;;;;;19.56;66.77;102243.66;6372794;22;45280;-80
2023/10/07 10:46:07;;;;;;;;;4.75;4.75;;;;;19.62;66.81;102232.50;6372849;22;45143;-84
2023/10/07 10:48:41;;;;;;;;;4.00;4.00;;;;;19.88;65.84;102257.53;6372805;22;45244;-84
2023/10/07 10:51:08;;;;;;;;;5.25;5.25;;;;;19.97;65.27;102248.94;6372117;22;45139;-84
2023/10/07 10:53:36;;;;;;;;;4.50;4.00;;;;;20.01;65.80;102246.09;6373077;22;45147;-84
2023/10/07 10:56:02;;;;;;;;;4.50;4.50;;;;;20.13;65.33;102253.63;6372409;22;45448;-84
2023/10/07 10:58:29;;;;;;;;;6.00;6.00;;;;;20.09;65.15;102231.22;6372644;22;45286;-80
2023/10/07 11:00:54;;;;;;;;;4.25;3.25;;;;;20.18;64.89;102235.34;6372235;22;45146;-80
2023/10/07 11:03:21;;;;;;;;;4.50;4.50;;;;;20.31;65.47;102252.75;6373182;22;45417;-80
2023/10/07 11:05:58;;;;;;;;;4.25;4.25;;;;;20.35;65.42;102235.34;6373006;22;45203;-80
2023/10/07 11:08:28;;;;;;;;;5.25;5.25;;;;;20.41;64.25;102228.72;6372968;22;45674;-80
2023/10/07 11:10:55;;;;;;;;;5.00;4.00;;;;;20.53;64.04;102235.38;6344733;22;45212;-80
2023/10/07 11:13:23;;;;;;;;;4.00;4.00;;;;;20.64;62.99;102240.28;6372765;22;45293;-84
2023/10/07 11:16:09;;;;;;;;;6.00;5.00;;;;;20.72;62.42;102235.34;6371932;22;45154;-84
2023/10/07 11:18:45;;;;;;;;;3.25;2.50;;;;;20.70;62.47;102226.44;6372712;22;45300;-84
2023/10/07 11:21:19;;;;;;;;;4.50;4.50;;;;;20.83;63.28;102232.97;6370730;22;45214;-84
2023/10/07 11:23:49;;;;;;;;;4.00;4.00;;;;;20.77;62.80;102219.72;6344550;22;45260;-84
2023/10/07 11:26:17;;;;;;;;;4.00;4.00;;;;;20.84;62.32;102217.56;6372008;22;45927;-84
2023/10/07 11:28:43;;;;;;;;;4.75;4.25;;;;;20.91;62.04;102222.59;6372288;22;45250;-84
2023/10/07 11:31:08;;;;;;;;;3.75;3.75;;;;;20.98;61.61;102223.16;6344239;22;45187;-84
2023/10/07 11:33:34;;;;;;;;;3.50;2.25;;;;;20.88;61.01;102197.44;6343690;22;45383;-84
2023/10/07 11:36:02;;;;;;;;;3.00;3.00;;;;;20.93;60.67;102203.47;6372650;22;45268;-84
2023/10/07 11:38:28;;;;;;;;;4.75;4.00;;;;;21.05;60.54;102221.84;6372609;22;45225;-84
2023/10/07 11:40:53;;;;;;;;;6.75;3.25;;;;;21.12;61.43;102214.25;6372463;22;45226;-84
2023/10/07 11:43:19;;;;;;;;;4.00;3.00;;;;;21.11;60.22;102201.63;6371259;22;45221;-84
2023/10/07 11:45:45;;;;;;;;;3.50;3.50;;;;;21.12;60.45;102195.25;6343778;22;45339;-84
2023/10/07 11:48:11;;;;;;;;;4.00;3.00;;;;;21.20;60.89;102201.16;6372191;22;45305;-84
2023/10/07 11:50:37;;;;;;;;;4.00;4.00;;;;;21.22;60.09;102203.78;6372023;22;45201;-84
2023/10/07 11:53:05;;;;;;;;;2.25;2.25;;;;;21.31;59.53;102207.84;6372861;22;45180;-84
2023/10/07 11:55:31;;;;;;;;;3.50;3.50;;;;;21.30;59.56;102209.69;6372131;22;45241;-84
2023/10/07 11:58:07;;;;;;;;;2.25;2.25;;;;;21.29;60.32;102197.91;6370826;22;47046;-84
2023/10/07 12:00:34;;;;;;;;;3.00;3.00;;;;;21.36;59.82;102192.16;6371186;22;45324;-84
2023/10/07 12:03:04;;;;;;;;;3.50;3.00;;;;;21.40;59.37;102200.06;6372739;22;45233;-80
2023/10/07 12:05:31;;;;;;;;;3.25;3.25;;;;;21.54;59.51;102207.47;6372660;22;45402;-80